sensor_id;sensor_type;location;lat;lon;timestamp;temperature;humidity
9482;DHT22;4779;48.062;11.672;2024-03-02T00:00:19;5.90;99.90
9482;DHT22;4779;48.062;11.672;2024-03-02T00:02:49;5.90;99.90
9482;DHT22;4779;48.062;11.672;2024-03-02T00:05:17;5.90;99.90
9482;DHT22;4779;48.062;11.672;2024-03-02T00:07:46;5.90;99.90
9482;DHT22;4779;48.062;11.672;2024-03-02T00:10:18;5.90;99.90
9482;DHT22;4779;48.062;11.672;2024-03-02T00:12:47;5.90;99.90
9482;DHT22;4779;48.062;11.672;2024-03-02T00:15:36;5.90;99.90
9482;DHT22;4779;48.062;11.672;2024-03-02T00:18:09;5.90;99.90
9482;DHT22;4779;48.062;11.672;2024-03-02T00:20:37;5.90;99.90
9482;DHT22;4779;48.062;11.672;2024-03-02T00:23:05;5.90;99.90
9482;DHT22;4779;48.062;11.672;2024-03-02T00:25:38;5.90;99.90
9482;DHT22;4779;48.062;11.672;2024-03-02T00:28:13;5.80;99.90
9482;DHT22;4779;48.062;11.672;2024-03-02T00:30:52;5.70;99.90
9482;DHT22;4779;48.062;11.672;2024-03-02T00:33:25;5.70;99.90
9482;DHT22;4779;48.062;11.672;2024-03-02T00:35:53;5.70;99.90
9482;DHT22;4779;48.062;11.672;2024-03-02T00:41:42;5.70;99.90
9482;DHT22;4779;48.062;11.672;2024-03-02T00:44:12;5.70;99.90
9482;DHT22;4779;48.062;11.672;2024-03-02T00:46:40;5.60;99.90
9482;DHT22;4779;48.062;11.672;2024-03-02T00:49:18;5.60;99.90
9482;DHT22;4779;48.062;11.672;2024-03-02T00:51:47;5.60;99.90
9482;DHT22;4779;48.062;11.672;2024-03-02T00:54:14;5.60;99.90
9482;DHT22;4779;48.062;11.672;2024-03-02T00:56:42;5.60;99.90
9482;DHT22;4779;48.062;11.672;2024-03-02T00:59:10;5.60;99.90
9482;DHT22;4779;48.062;11.672;2024-03-02T01:01:37;5.60;99.90
9482;DHT22;4779;48.062;11.672;2024-03-02T01:04:04;5.60;99.90
9482;DHT22;4779;48.062;11.672;2024-03-02T01:06:33;5.60;99.90
9482;DHT22;4779;48.062;11.672;2024-03-02T01:09:01;5.60;99.90
9482;DHT22;4779;48.062;11.672;2024-03-02T01:11:28;5.70;99.90
9482;DHT22;4779;48.062;11.672;2024-03-02T01:13:55;5.70;99.90
9482;DHT22;4779;48.062;11.672;2024-03-02T01:16:22;5.60;99.90
9482;DHT22;4779;48.062;11.672;2024-03-02T01:18:50;5.60;99.90
9482;DHT22;4779;48.062;11.672;2024-03-02T01:21:17;5.60;99.90
9482;DHT22;4779;48.062;11.672;2024-03-02T01:23:45;5.60;99.90
9482;DHT22;4779;48.062;11.672;2024-03-02T01:26:13;5.50;99.90
9482;DHT22;4779;48.062;11.672;2024-03-02T01:28:40;5.50;99.90
9482;DHT22;4779;48.062;11.672;2024-03-02T01:31:07;5.40;99.90
9482;DHT22;4779;48.062;11.672;2024-03-02T01:33:34;5.30;99.90
9482;DHT22;4779;48.062;11.672;2024-03-02T01:36:01;5.30;99.90
9482;DHT22;4779;48.062;11.672;2024-03-02T01:38:28;5.40;99.90
9482;DHT22;4779;48.062;11.672;2024-03-02T01:40:56;5.40;99.90
9482;DHT22;4779;48.062;11.672;2024-03-02T01:43:24;5.50;99.90
9482;DHT22;4779;48.062;11.672;2024-03-02T01:45:51;5.60;99.90
9482;DHT22;4779;48.062;11.672;2024-03-02T01:48:18;5.60;99.90
9482;DHT22;4779;48.062;11.672;2024-03-02T01:50:46;5.60;99.90
9482;DHT22;4779;48.062;11.672;2024-03-02T01:53:13;5.60;99.90
9482;DHT22;4779;48.062;11.672;2024-03-02T01:55:40;5.60;99.90
9482;DHT22;4779;48.062;11.672;2024-03-02T01:58:08;5.70;99.90
9482;DHT22;4779;48.062;11.672;2024-03-02T02:00:35;5.70;99.90
9482;DHT22;4779;48.062;11.672;2024-03-02T02:03:03;5.70;99.90
9482;DHT22;4779;48.062;11.672;2024-03-02T02:05:30;5.70;99.90
9482;DHT22;4779;48.062;11.672;2024-03-02T02:07:57;5.70;99.90
9482;DHT22;4779;48.062;11.672;2024-03-02T02:10:24;5.70;99.90
9482;DHT22;4779;48.062;11.672;2024-03-02T02:12:51;5.70;99.90
9482;DHT22;4779;48.062;11.672;2024-03-02T02:15:24;5.70;99.90
9482;DHT22;4779;48.062;11.672;2024-03-02T02:17:51;5.70;99.90
9482;DHT22;4779;48.062;11.672;2024-03-02T02:20:19;5.70;99.90
9482;DHT22;4779;48.062;11.672;2024-03-02T02:23:00;5.70;99.90
9482;DHT22;4779;48.062;11.672;2024-03-02T02:25:27;5.70;99.90
9482;DHT22;4779;48.062;11.672;2024-03-02T02:27:55;5.70;99.90
9482;DHT22;4779;48.062;11.672;2024-03-02T02:30:24;5.70;99.90
9482;DHT22;4779;48.062;11.672;2024-03-02T02:32:51;5.70;99.90
9482;DHT22;4779;48.062;11.672;2024-03-02T02:35:18;5.70;99.90
9482;DHT22;4779;48.062;11.672;2024-03-02T02:37:46;5.70;99.90
9482;DHT22;4779;48.062;11.672;2024-03-02T02:40:15;5.70;99.90
9482;DHT22;4779;48.062;11.672;2024-03-02T02:42:44;5.70;99.90
9482;DHT22;4779;48.062;11.672;2024-03-02T02:45:11;5.70;99.90
9482;DHT22;4779;48.062;11.672;2024-03-02T02:47:40;5.70;99.90
9482;DHT22;4779;48.062;11.672;2024-03-02T02:50:08;5.70;99.90
9482;DHT22;4779;48.062;11.672;2024-03-02T02:52:36;5.70;99.90
9482;DHT22;4779;48.062;11.672;2024-03-02T02:55:06;5.80;99.90
9482;DHT22;4779;48.062;11.672;2024-03-02T02:57:35;5.80;99.90
9482;DHT22;4779;48.062;11.672;2024-03-02T03:00:07;5.80;99.90
9482;DHT22;4779;48.062;11.672;2024-03-02T03:02:39;5.80;99.90
9482;DHT22;4779;48.062;11.672;2024-03-02T03:05:08;5.80;99.90
9482;DHT22;4779;48.062;11.672;2024-03-02T03:07:35;5.80;99.90
9482;DHT22;4779;48.062;11.672;2024-03-02T03:10:02;5.80;99.90
9482;DHT22;4779;48.062;11.672;2024-03-02T03:12:30;5.80;99.90
9482;DHT22;4779;48.062;11.672;2024-03-02T03:14:59;5.80;99.90
9482;DHT22;4779;48.062;11.672;2024-03-02T03:17:26;5.80;99.90
9482;DHT22;4779;48.062;11.672;2024-03-02T03:19:53;5.80;99.90
9482;DHT22;4779;48.062;11.672;2024-03-02T03:22:21;5.80;99.90
9482;DHT22;4779;48.062;11.672;2024-03-02T03:24:48;5.80;99.90
9482;DHT22;4779;48.062;11.672;2024-03-02T03:27:15;5.70;99.90
9482;DHT22;4779;48.062;11.672;2024-03-02T03:29:42;5.80;99.90
9482;DHT22;4779;48.062;11.672;2024-03-02T03:32:10;5.80;99.90
9482;DHT22;4779;48.062;11.672;2024-03-02T03:34:38;5.80;99.90
9482;DHT22;4779;48.062;11.672;2024-03-02T03:37:05;5.70;99.90
9482;DHT22;4779;48.062;11.672;2024-03-02T03:39:33;5.70;99.90
9482;DHT22;4779;48.062;11.672;2024-03-02T03:42:00;5.80;99.90
9482;DHT22;4779;48.062;11.672;2024-03-02T03:44:27;5.80;99.90
9482;DHT22;4779;48.062;11.672;2024-03-02T03:46:54;5.70;99.90
9482;DHT22;4779;48.062;11.672;2024-03-02T03:49:22;5.70;99.90
9482;DHT22;4779;48.062;11.672;2024-03-02T03:51:49;5.70;99.90
9482;DHT22;4779;48.062;11.672;2024-03-02T03:54:16;5.70;99.90
9482;DHT22;4779;48.062;11.672;2024-03-02T03:56:43;5.70;99.90
9482;DHT22;4779;48.062;11.672;2024-03-02T03:59:11;5.70;99.90
9482;DHT22;4779;48.062;11.672;2024-03-02T04:01:38;5.70;99.90
9482;DHT22;4779;48.062;11.672;2024-03-02T04:04:05;5.70;99.90
9482;DHT22;4779;48.062;11.672;2024-03-02T04:06:34;5.70;99.90
9482;DHT22;4779;48.062;11.672;2024-03-02T04:09:01;5.70;99.90
9482;DHT22;4779;48.062;11.672;2024-03-02T04:11:29;5.80;99.90
9482;DHT22;4779;48.062;11.672;2024-03-02T04:13:57;5.70;99.90
9482;DHT22;4779;48.062;11.672;2024-03-02T04:16:24;5.80;99.90
9482;DHT22;4779;48.062;11.672;2024-03-02T04:18:51;5.70;99.90
9482;DHT22;4779;48.062;11.672;2024-03-02T04:21:18;5.70;99.90
9482;DHT22;4779;48.062;11.672;2024-03-02T04:23:46;5.70;99.90
9482;DHT22;4779;48.062;11.672;2024-03-02T04:26:13;5.70;99.90
9482;DHT22;4779;48.062;11.672;2024-03-02T04:28:45;5.80;99.90
9482;DHT22;4779;48.062;11.672;2024-03-02T04:31:12;5.80;99.90
9482;DHT22;4779;48.062;11.672;2024-03-02T04:33:39;5.80;99.90
9482;DHT22;4779;48.062;11.672;2024-03-02T04:36:06;5.70;99.90
9482;DHT22;4779;48.062;11.672;2024-03-02T04:38:35;5.70;99.90
9482;DHT22;4779;48.062;11.672;2024-03-02T04:41:03;5.80;99.90
9482;DHT22;4779;48.062;11.672;2024-03-02T04:43:31;5.70;99.90
9482;DHT22;4779;48.062;11.672;2024-03-02T04:45:58;5.80;99.90
9482;DHT22;4779;48.062;11.672;2024-03-02T04:48:26;5.80;99.90
9482;DHT22;4779;48.062;11.672;2024-03-02T04:50:53;5.60;99.90
9482;DHT22;4779;48.062;11.672;2024-03-02T04:53:20;5.60;99.90
9482;DHT22;4779;48.062;11.672;2024-03-02T04:55:47;5.60;99.90
9482;DHT22;4779;48.062;11.672;2024-03-02T04:58:41;5.60;99.90
9482;DHT22;4779;48.062;11.672;2024-03-02T05:01:08;5.60;99.90
9482;DHT22;4779;48.062;11.672;2024-03-02T05:03:36;5.60;99.90
9482;DHT22;4779;48.062;11.672;2024-03-02T05:06:03;5.60;99.90
9482;DHT22;4779;48.062;11.672;2024-03-02T05:08:30;5.60;99.90
9482;DHT22;4779;48.062;11.672;2024-03-02T05:10:57;5.60;99.90
9482;DHT22;4779;48.062;11.672;2024-03-02T05:13:46;5.60;99.90
9482;DHT22;4779;48.062;11.672;2024-03-02T05:16:12;5.70;99.90
9482;DHT22;4779;48.062;11.672;2024-03-02T05:18:39;5.70;99.90
9482;DHT22;4779;48.062;11.672;2024-03-02T05:21:06;5.70;99.90
9482;DHT22;4779;48.062;11.672;2024-03-02T05:23:33;5.60;99.90
9482;DHT22;4779;48.062;11.672;2024-03-02T05:26:00;5.60;99.90
9482;DHT22;4779;48.062;11.672;2024-03-02T05:28:27;5.70;99.90
9482;DHT22;4779;48.062;11.672;2024-03-02T05:30:56;5.70;99.90
9482;DHT22;4779;48.062;11.672;2024-03-02T05:33:23;5.60;99.90
9482;DHT22;4779;48.062;11.672;2024-03-02T05:35:50;5.70;99.90
9482;DHT22;4779;48.062;11.672;2024-03-02T05:38:17;5.60;99.90
9482;DHT22;4779;48.062;11.672;2024-03-02T05:40:44;5.70;99.90
9482;DHT22;4779;48.062;11.672;2024-03-02T05:43:11;5.70;99.90
9482;DHT22;4779;48.062;11.672;2024-03-02T05:45:38;5.70;99.90
9482;DHT22;4779;48.062;11.672;2024-03-02T05:48:07;5.70;99.90
9482;DHT22;4779;48.062;11.672;2024-03-02T05:50:35;5.70;99.90
9482;DHT22;4779;48.062;11.672;2024-03-02T05:53:02;5.70;99.90
9482;DHT22;4779;48.062;11.672;2024-03-02T05:55:29;5.70;99.90
9482;DHT22;4779;48.062;11.672;2024-03-02T05:57:56;5.70;99.90
9482;DHT22;4779;48.062;11.672;2024-03-02T06:00:41;5.70;99.90
9482;DHT22;4779;48.062;11.672;2024-03-02T06:03:10;5.70;99.90
9482;DHT22;4779;48.062;11.672;2024-03-02T06:05:37;5.70;99.90
9482;DHT22;4779;48.062;11.672;2024-03-02T06:08:04;5.70;99.90
9482;DHT22;4779;48.062;11.672;2024-03-02T06:10:31;5.70;99.90
9482;DHT22;4779;48.062;11.672;2024-03-02T06:12:58;5.70;99.90
9482;DHT22;4779;48.062;11.672;2024-03-02T06:15:25;5.80;99.90
9482;DHT22;4779;48.062;11.672;2024-03-02T06:17:52;5.80;99.90
9482;DHT22;4779;48.062;11.672;2024-03-02T06:20:21;5.80;99.90
9482;DHT22;4779;48.062;11.672;2024-03-02T06:22:48;5.70;99.90
9482;DHT22;4779;48.062;11.672;2024-03-02T06:25:15;5.70;99.90
9482;DHT22;4779;48.062;11.672;2024-03-02T06:27:42;5.70;99.90
9482;DHT22;4779;48.062;11.672;2024-03-02T06:30:10;5.70;99.90
9482;DHT22;4779;48.062;11.672;2024-03-02T06:32:37;5.70;99.90
9482;DHT22;4779;48.062;11.672;2024-03-02T06:35:05;5.70;99.90
9482;DHT22;4779;48.062;11.672;2024-03-02T06:37:37;5.70;99.90
9482;DHT22;4779;48.062;11.672;2024-03-02T06:40:06;5.70;99.90
9482;DHT22;4779;48.062;11.672;2024-03-02T06:42:33;5.80;99.90
9482;DHT22;4779;48.062;11.672;2024-03-02T06:45:00;5.80;99.90
9482;DHT22;4779;48.062;11.672;2024-03-02T06:47:27;5.90;99.90
9482;DHT22;4779;48.062;11.672;2024-03-02T06:49:54;5.90;99.90
9482;DHT22;4779;48.062;11.672;2024-03-02T06:52:23;5.90;99.90
9482;DHT22;4779;48.062;11.672;2024-03-02T06:54:51;5.90;99.90
9482;DHT22;4779;48.062;11.672;2024-03-02T06:57:18;5.90;99.90
9482;DHT22;4779;48.062;11.672;2024-03-02T06:59:46;6.00;99.90
9482;DHT22;4779;48.062;11.672;2024-03-02T07:02:15;6.00;99.90
9482;DHT22;4779;48.062;11.672;2024-03-02T07:04:43;6.00;99.90
9482;DHT22;4779;48.062;11.672;2024-03-02T07:07:13;6.00;99.90
9482;DHT22;4779;48.062;11.672;2024-03-02T07:09:41;6.10;99.90
9482;DHT22;4779;48.062;11.672;2024-03-02T07:12:08;6.10;99.90
9482;DHT22;4779;48.062;11.672;2024-03-02T07:14:35;6.10;99.90
9482;DHT22;4779;48.062;11.672;2024-03-02T07:17:16;6.20;99.90
9482;DHT22;4779;48.062;11.672;2024-03-02T07:19:43;6.20;99.90
9482;DHT22;4779;48.062;11.672;2024-03-02T07:22:10;6.30;99.90
9482;DHT22;4779;48.062;11.672;2024-03-02T07:24:41;6.30;99.90
9482;DHT22;4779;48.062;11.672;2024-03-02T07:27:10;6.30;99.90
9482;DHT22;4779;48.062;11.672;2024-03-02T07:29:38;6.40;99.90
9482;DHT22;4779;48.062;11.672;2024-03-02T07:32:05;6.40;99.90
9482;DHT22;4779;48.062;11.672;2024-03-02T07:34:36;6.40;99.90
9482;DHT22;4779;48.062;11.672;2024-03-02T07:37:03;6.40;99.90
9482;DHT22;4779;48.062;11.672;2024-03-02T07:39:31;6.40;99.90
9482;DHT22;4779;48.062;11.672;2024-03-02T07:41:59;6.40;99.90
9482;DHT22;4779;48.062;11.672;2024-03-02T07:44:28;6.40;99.90
9482;DHT22;4779;48.062;11.672;2024-03-02T07:46:55;6.50;99.90
9482;DHT22;4779;48.062;11.672;2024-03-02T07:49:22;6.50;99.90
9482;DHT22;4779;48.062;11.672;2024-03-02T07:51:49;6.50;99.90
9482;DHT22;4779;48.062;11.672;2024-03-02T07:54:16;6.60;99.90
9482;DHT22;4779;48.062;11.672;2024-03-02T07:56:43;6.60;99.90
9482;DHT22;4779;48.062;11.672;2024-03-02T07:59:11;6.60;99.90
9482;DHT22;4779;48.062;11.672;2024-03-02T08:01:40;6.60;99.90
9482;DHT22;4779;48.062;11.672;2024-03-02T08:04:07;6.60;99.90
9482;DHT22;4779;48.062;11.672;2024-03-02T08:06:34;6.60;99.90
9482;DHT22;4779;48.062;11.672;2024-03-02T08:09:01;6.70;99.90
9482;DHT22;4779;48.062;11.672;2024-03-02T08:11:30;6.70;99.90
9482;DHT22;4779;48.062;11.672;2024-03-02T08:13:57;6.80;99.90
9482;DHT22;4779;48.062;11.672;2024-03-02T08:16:25;6.80;99.90
9482;DHT22;4779;48.062;11.672;2024-03-02T08:18:53;6.90;99.90
9482;DHT22;4779;48.062;11.672;2024-03-02T08:21:23;7.00;99.90
9482;DHT22;4779;48.062;11.672;2024-03-02T08:23:50;7.20;99.90
9482;DHT22;4779;48.062;11.672;2024-03-02T08:26:17;7.30;99.90
9482;DHT22;4779;48.062;11.672;2024-03-02T08:28:44;7.40;99.90
9482;DHT22;4779;48.062;11.672;2024-03-02T08:31:12;7.60;99.90
9482;DHT22;4779;48.062;11.672;2024-03-02T08:33:39;7.70;99.90
9482;DHT22;4779;48.062;11.672;2024-03-02T08:36:08;7.80;99.90
9482;DHT22;4779;48.062;11.672;2024-03-02T08:38:35;8.00;99.90
9482;DHT22;4779;48.062;11.672;2024-03-02T08:41:03;8.20;99.90
9482;DHT22;4779;48.062;11.672;2024-03-02T08:43:30;8.30;99.90
9482;DHT22;4779;48.062;11.672;2024-03-02T08:45:57;8.40;99.90
9482;DHT22;4779;48.062;11.672;2024-03-02T08:48:24;8.50;99.90
9482;DHT22;4779;48.062;11.672;2024-03-02T08:50:51;8.60;99.90
9482;DHT22;4779;48.062;11.672;2024-03-02T08:53:20;8.70;99.90
9482;DHT22;4779;48.062;11.672;2024-03-02T08:55:47;8.70;99.90
9482;DHT22;4779;48.062;11.672;2024-03-02T08:58:14;8.80;99.90
9482;DHT22;4779;48.062;11.672;2024-03-02T09:00:41;8.90;99.90
9482;DHT22;4779;48.062;11.672;2024-03-02T09:03:09;8.90;99.90
9482;DHT22;4779;48.062;11.672;2024-03-02T09:05:36;8.90;99.90
9482;DHT22;4779;48.062;11.672;2024-03-02T09:08:03;8.90;99.90
9482;DHT22;4779;48.062;11.672;2024-03-02T09:10:32;9.10;99.90
9482;DHT22;4779;48.062;11.672;2024-03-02T09:12:59;9.30;99.90
9482;DHT22;4779;48.062;11.672;2024-03-02T09:15:27;9.40;99.90
9482;DHT22;4779;48.062;11.672;2024-03-02T09:17:54;9.60;99.90
9482;DHT22;4779;48.062;11.672;2024-03-02T09:20:21;9.80;99.90
9482;DHT22;4779;48.062;11.672;2024-03-02T09:22:48;9.90;99.90
9482;DHT22;4779;48.062;11.672;2024-03-02T09:25:15;9.90;99.90
9482;DHT22;4779;48.062;11.672;2024-03-02T09:27:43;10.00;99.90
9482;DHT22;4779;48.062;11.672;2024-03-02T09:30:11;10.00;99.90
9482;DHT22;4779;48.062;11.672;2024-03-02T09:32:39;10.50;99.90
9482;DHT22;4779;48.062;11.672;2024-03-02T09:35:07;11.20;99.90
9482;DHT22;4779;48.062;11.672;2024-03-02T09:37:34;11.80;99.90
9482;DHT22;4779;48.062;11.672;2024-03-02T09:40:02;12.20;99.90
9482;DHT22;4779;48.062;11.672;2024-03-02T09:42:30;12.20;99.90
9482;DHT22;4779;48.062;11.672;2024-03-02T09:44:59;12.30;99.90
9482;DHT22;4779;48.062;11.672;2024-03-02T09:47:26;12.20;99.90
9482;DHT22;4779;48.062;11.672;2024-03-02T09:49:53;12.40;99.90
9482;DHT22;4779;48.062;11.672;2024-03-02T09:52:22;13.20;99.90
9482;DHT22;4779;48.062;11.672;2024-03-02T09:54:49;13.50;99.90
9482;DHT22;4779;48.062;11.672;2024-03-02T09:57:16;13.70;99.90
9482;DHT22;4779;48.062;11.672;2024-03-02T09:59:43;14.40;99.90
9482;DHT22;4779;48.062;11.672;2024-03-02T10:02:12;15.20;99.90
9482;DHT22;4779;48.062;11.672;2024-03-02T10:04:39;15.90;99.90
9482;DHT22;4779;48.062;11.672;2024-03-02T10:07:10;16.10;99.90
9482;DHT22;4779;48.062;11.672;2024-03-02T10:09:38;16.50;99.20
9482;DHT22;4779;48.062;11.672;2024-03-02T10:12:07;17.10;99.40
9482;DHT22;4779;48.062;11.672;2024-03-02T10:14:34;17.30;98.20
9482;DHT22;4779;48.062;11.672;2024-03-02T10:17:05;17.60;97.50
9482;DHT22;4779;48.062;11.672;2024-03-02T10:19:34;18.10;96.90
9482;DHT22;4779;48.062;11.672;2024-03-02T10:22:03;17.70;95.20
9482;DHT22;4779;48.062;11.672;2024-03-02T10:24:41;17.60;95.70
9482;DHT22;4779;48.062;11.672;2024-03-02T10:27:14;17.80;95.40
9482;DHT22;4779;48.062;11.672;2024-03-02T10:29:42;17.30;95.40
9482;DHT22;4779;48.062;11.672;2024-03-02T10:32:09;17.40;97.10
9482;DHT22;4779;48.062;11.672;2024-03-02T10:34:40;17.70;97.00
9482;DHT22;4779;48.062;11.672;2024-03-02T10:37:07;18.20;96.50
9482;DHT22;4779;48.062;11.672;2024-03-02T10:39:35;18.80;95.20
9482;DHT22;4779;48.062;11.672;2024-03-02T10:42:03;18.60;93.30
9482;DHT22;4779;48.062;11.672;2024-03-02T10:44:31;18.20;94.80
9482;DHT22;4779;48.062;11.672;2024-03-02T10:47:00;18.40;95.20
9482;DHT22;4779;48.062;11.672;2024-03-02T10:49:29;18.80;94.40
9482;DHT22;4779;48.062;11.672;2024-03-02T10:51:59;19.30;94.60
9482;DHT22;4779;48.062;11.672;2024-03-02T10:54:26;19.50;92.30
9482;DHT22;4779;48.062;11.672;2024-03-02T10:56:58;20.00;93.90
9482;DHT22;4779;48.062;11.672;2024-03-02T10:59:28;20.10;91.00
9482;DHT22;4779;48.062;11.672;2024-03-02T11:02:00;19.70;91.00
9482;DHT22;4779;48.062;11.672;2024-03-02T11:04:28;19.60;92.40
9482;DHT22;4779;48.062;11.672;2024-03-02T11:07:00;19.80;92.00
9482;DHT22;4779;48.062;11.672;2024-03-02T11:09:34;19.90;91.70
9482;DHT22;4779;48.062;11.672;2024-03-02T11:14:46;20.30;91.00
9482;DHT22;4779;48.062;11.672;2024-03-02T11:17:14;20.60;92.40
9482;DHT22;4779;48.062;11.672;2024-03-02T11:19:43;20.80;94.40
9482;DHT22;4779;48.062;11.672;2024-03-02T11:22:12;20.80;92.70
9482;DHT22;4779;48.062;11.672;2024-03-02T11:24:47;20.70;89.20
9482;DHT22;4779;48.062;11.672;2024-03-02T11:27:15;20.80;91.10
9482;DHT22;4779;48.062;11.672;2024-03-02T11:30:02;20.80;90.60
9482;DHT22;4779;48.062;11.672;2024-03-02T11:32:29;20.80;91.10
9482;DHT22;4779;48.062;11.672;2024-03-02T11:34:56;19.90;89.90
9482;DHT22;4779;48.062;11.672;2024-03-02T11:37:25;20.00;89.20
9482;DHT22;4779;48.062;11.672;2024-03-02T11:39:52;20.30;90.30
9482;DHT22;4779;48.062;11.672;2024-03-02T11:42:19;20.50;90.00
9482;DHT22;4779;48.062;11.672;2024-03-02T11:44:47;20.60;88.40
9482;DHT22;4779;48.062;11.672;2024-03-02T11:47:16;20.60;89.40
9482;DHT22;4779;48.062;11.672;2024-03-02T11:49:44;20.70;88.80
9482;DHT22;4779;48.062;11.672;2024-03-02T11:52:13;20.80;87.70
9482;DHT22;4779;48.062;11.672;2024-03-02T11:54:43;20.70;87.80
9482;DHT22;4779;48.062;11.672;2024-03-02T11:57:15;20.70;86.90
9482;DHT22;4779;48.062;11.672;2024-03-02T11:59:43;20.90;88.70
9482;DHT22;4779;48.062;11.672;2024-03-02T12:02:14;21.10;87.00
9482;DHT22;4779;48.062;11.672;2024-03-02T12:04:42;21.00;86.70
9482;DHT22;4779;48.062;11.672;2024-03-02T12:07:11;20.90;87.30
9482;DHT22;4779;48.062;11.672;2024-03-02T12:12:08;20.90;86.80
9482;DHT22;4779;48.062;11.672;2024-03-02T12:14:37;20.70;86.80
9482;DHT22;4779;48.062;11.672;2024-03-02T12:17:06;20.30;84.40
9482;DHT22;4779;48.062;11.672;2024-03-02T12:19:34;20.50;87.70
9482;DHT22;4779;48.062;11.672;2024-03-02T12:22:01;20.50;86.20
9482;DHT22;4779;48.062;11.672;2024-03-02T12:24:29;20.50;86.10
9482;DHT22;4779;48.062;11.672;2024-03-02T12:26:56;20.40;85.70
9482;DHT22;4779;48.062;11.672;2024-03-02T12:29:25;20.40;87.30
9482;DHT22;4779;48.062;11.672;2024-03-02T12:31:53;20.10;87.90
9482;DHT22;4779;48.062;11.672;2024-03-02T12:34:21;19.80;87.90
9482;DHT22;4779;48.062;11.672;2024-03-02T12:36:49;19.30;88.40
9482;DHT22;4779;48.062;11.672;2024-03-02T12:39:18;19.10;89.00
9482;DHT22;4779;48.062;11.672;2024-03-02T12:41:46;18.90;90.00
9482;DHT22;4779;48.062;11.672;2024-03-02T12:44:16;18.90;90.10
9482;DHT22;4779;48.062;11.672;2024-03-02T12:46:45;18.80;89.80
9482;DHT22;4779;48.062;11.672;2024-03-02T12:49:15;18.90;90.10
9482;DHT22;4779;48.062;11.672;2024-03-02T12:51:43;19.00;90.00
9482;DHT22;4779;48.062;11.672;2024-03-02T12:54:12;19.00;89.90
9482;DHT22;4779;48.062;11.672;2024-03-02T12:56:41;19.10;89.30
9482;DHT22;4779;48.062;11.672;2024-03-02T12:59:18;19.10;89.40
9482;DHT22;4779;48.062;11.672;2024-03-02T13:01:51;19.10;88.80
9482;DHT22;4779;48.062;11.672;2024-03-02T13:04:22;19.10;88.60
9482;DHT22;4779;48.062;11.672;2024-03-02T13:06:50;19.10;89.70
9482;DHT22;4779;48.062;11.672;2024-03-02T13:09:17;19.10;88.90
9482;DHT22;4779;48.062;11.672;2024-03-02T13:11:45;19.30;88.70
9482;DHT22;4779;48.062;11.672;2024-03-02T13:14:12;19.20;88.40
9482;DHT22;4779;48.062;11.672;2024-03-02T13:16:39;19.00;88.30
9482;DHT22;4779;48.062;11.672;2024-03-02T13:19:09;18.90;88.80
9482;DHT22;4779;48.062;11.672;2024-03-02T13:21:36;18.70;87.20
9482;DHT22;4779;48.062;11.672;2024-03-02T13:24:04;18.60;88.00
9482;DHT22;4779;48.062;11.672;2024-03-02T13:26:31;18.80;88.50
9482;DHT22;4779;48.062;11.672;2024-03-02T13:28:58;18.80;86.90
9482;DHT22;4779;48.062;11.672;2024-03-02T13:31:25;18.90;87.30
9482;DHT22;4779;48.062;11.672;2024-03-02T13:33:52;18.80;87.20
9482;DHT22;4779;48.062;11.672;2024-03-02T13:36:20;18.90;88.90
9482;DHT22;4779;48.062;11.672;2024-03-02T13:38:47;19.10;88.70
9482;DHT22;4779;48.062;11.672;2024-03-02T13:41:15;19.40;87.80
9482;DHT22;4779;48.062;11.672;2024-03-02T13:43:42;19.40;87.60
9482;DHT22;4779;48.062;11.672;2024-03-02T13:46:10;19.60;87.20
9482;DHT22;4779;48.062;11.672;2024-03-02T13:48:37;19.60;87.50
9482;DHT22;4779;48.062;11.672;2024-03-02T13:51:04;19.60;87.80
9482;DHT22;4779;48.062;11.672;2024-03-02T13:53:33;19.30;87.50
9482;DHT22;4779;48.062;11.672;2024-03-02T13:56:01;19.30;85.70
9482;DHT22;4779;48.062;11.672;2024-03-02T13:58:32;19.40;86.30
9482;DHT22;4779;48.062;11.672;2024-03-02T14:00:59;19.50;86.70
9482;DHT22;4779;48.062;11.672;2024-03-02T14:03:26;19.50;86.00
9482;DHT22;4779;48.062;11.672;2024-03-02T14:05:54;19.60;86.00
9482;DHT22;4779;48.062;11.672;2024-03-02T14:08:21;19.40;85.00
9482;DHT22;4779;48.062;11.672;2024-03-02T14:10:50;19.30;83.70
9482;DHT22;4779;48.062;11.672;2024-03-02T14:13:17;19.10;82.90
9482;DHT22;4779;48.062;11.672;2024-03-02T14:15:44;18.90;83.50
9482;DHT22;4779;48.062;11.672;2024-03-02T14:18:12;18.70;84.80
9482;DHT22;4779;48.062;11.672;2024-03-02T14:20:39;18.70;84.60
9482;DHT22;4779;48.062;11.672;2024-03-02T14:23:07;18.50;84.00
9482;DHT22;4779;48.062;11.672;2024-03-02T14:25:35;18.40;85.20
9482;DHT22;4779;48.062;11.672;2024-03-02T14:28:05;18.00;85.00
9482;DHT22;4779;48.062;11.672;2024-03-02T14:30:32;17.80;85.80
9482;DHT22;4779;48.062;11.672;2024-03-02T14:32:59;17.70;85.90
9482;DHT22;4779;48.062;11.672;2024-03-02T14:35:26;17.60;87.70
9482;DHT22;4779;48.062;11.672;2024-03-02T14:37:54;17.70;87.10
9482;DHT22;4779;48.062;11.672;2024-03-02T14:40:23;17.60;87.20
9482;DHT22;4779;48.062;11.672;2024-03-02T14:42:52;17.50;88.30
9482;DHT22;4779;48.062;11.672;2024-03-02T14:45:21;17.40;89.50
9482;DHT22;4779;48.062;11.672;2024-03-02T14:47:48;17.40;89.90
9482;DHT22;4779;48.062;11.672;2024-03-02T14:50:16;17.30;90.40
9482;DHT22;4779;48.062;11.672;2024-03-02T14:52:44;17.10;90.30
9482;DHT22;4779;48.062;11.672;2024-03-02T14:55:12;17.10;90.40
9482;DHT22;4779;48.062;11.672;2024-03-02T14:57:39;17.00;90.90
9482;DHT22;4779;48.062;11.672;2024-03-02T15:00:07;16.90;90.90
9482;DHT22;4779;48.062;11.672;2024-03-02T15:02:38;16.80;91.00
9482;DHT22;4779;48.062;11.672;2024-03-02T15:05:06;16.80;91.20
9482;DHT22;4779;48.062;11.672;2024-03-02T15:07:34;16.70;91.40
9482;DHT22;4779;48.062;11.672;2024-03-02T15:10:01;16.60;91.70
9482;DHT22;4779;48.062;11.672;2024-03-02T15:12:29;16.60;91.60
9482;DHT22;4779;48.062;11.672;2024-03-02T15:14:57;16.50;91.80
9482;DHT22;4779;48.062;11.672;2024-03-02T15:17:24;16.40;92.00
9482;DHT22;4779;48.062;11.672;2024-03-02T15:19:53;16.40;92.30
9482;DHT22;4779;48.062;11.672;2024-03-02T15:22:20;16.20;92.10
9482;DHT22;4779;48.062;11.672;2024-03-02T15:24:47;16.00;92.60
9482;DHT22;4779;48.062;11.672;2024-03-02T15:27:14;15.90;93.20
9482;DHT22;4779;48.062;11.672;2024-03-02T15:29:41;15.80;93.60
9482;DHT22;4779;48.062;11.672;2024-03-02T15:32:09;15.60;93.30
9482;DHT22;4779;48.062;11.672;2024-03-02T15:34:36;15.50;93.80
9482;DHT22;4779;48.062;11.672;2024-03-02T15:37:04;15.40;94.00
9482;DHT22;4779;48.062;11.672;2024-03-02T15:39:31;15.20;94.60
9482;DHT22;4779;48.062;11.672;2024-03-02T15:41:58;15.10;94.70
9482;DHT22;4779;48.062;11.672;2024-03-02T15:44:25;15.00;95.10
9482;DHT22;4779;48.062;11.672;2024-03-02T15:46:52;14.90;95.40
9482;DHT22;4779;48.062;11.672;2024-03-02T15:49:19;14.70;95.50
9482;DHT22;4779;48.062;11.672;2024-03-02T15:51:46;14.50;96.00
9482;DHT22;4779;48.062;11.672;2024-03-02T15:54:15;14.30;96.50
9482;DHT22;4779;48.062;11.672;2024-03-02T15:56:42;14.20;96.70
9482;DHT22;4779;48.062;11.672;2024-03-02T15:59:10;14.10;96.90
9482;DHT22;4779;48.062;11.672;2024-03-02T16:01:37;13.90;97.30
9482;DHT22;4779;48.062;11.672;2024-03-02T16:04:04;13.80;97.60
9482;DHT22;4779;48.062;11.672;2024-03-02T16:06:31;13.70;98.00
9482;DHT22;4779;48.062;11.672;2024-03-02T16:08:58;13.50;98.50